Minneapolis, Minnesota
Traffic Map
Current Weather Conditions
Minneapolis, Minnesota
Few Clouds
Few Clouds
73°
Feels Like: 73°
Wind Chill: 73° Ceiling: Unl
Heat Index: 73° Visibility: 10mi
Dew Point: 34° Wind: 13mph
Humidity: 24% Direction: 180° (S)
Pressure: 29.99in Gusts: 21mph
Raw Report DataKMSP 191953Z 18011G18KT 10SM FEW300 23/01 A2999 RMK AO2 SLP155 T02280011
Traffic Incident Summary
Active as of:
Severity:
Category:
InformationThere was an issue retrieving the traffic information for this location. Please try a different location or try again shortly.
Advertisements